createdAt,value
2018-09-30T00:01:34.939Z,5.40
2018-09-30T00:04:04.550Z,5.83
2018-09-30T00:06:33.806Z,5.27
2018-09-30T00:09:04.035Z,5.50
2018-09-30T00:11:34.582Z,5.30
2018-09-30T00:14:03.867Z,5.43
2018-09-30T00:16:33.372Z,4.97
2018-09-30T00:19:02.975Z,4.70
2018-09-30T00:21:32.864Z,4.70
2018-09-30T00:24:08.334Z,4.50
2018-09-30T00:26:43.844Z,3.90
2018-09-30T00:29:13.241Z,3.43
2018-09-30T00:31:42.345Z,3.47
2018-09-30T00:34:17.160Z,3.30
2018-09-30T00:36:46.294Z,3.53
2018-09-30T00:39:15.624Z,3.43
2018-09-30T00:41:44.697Z,4.20
2018-09-30T00:44:14.068Z,3.73
2018-09-30T00:46:43.219Z,3.53
2018-09-30T00:49:12.355Z,3.47
2018-09-30T00:51:41.540Z,3.13
2018-09-30T00:54:10.814Z,3.07
2018-09-30T00:56:40.503Z,3.10
2018-09-30T00:59:10.407Z,3.17
2018-09-30T01:01:39.971Z,3.17
2018-09-30T01:04:10.105Z,3.23
2018-09-30T01:06:39.603Z,3.40
2018-09-30T01:09:12.684Z,2.83
2018-09-30T01:11:42.374Z,2.97
2018-09-30T01:14:12.481Z,3.27
2018-09-30T01:16:42.258Z,3.03
2018-09-30T01:19:11.407Z,3.20
2018-09-30T01:21:40.438Z,3.10
2018-09-30T01:24:09.813Z,2.97
2018-09-30T01:26:40.462Z,3.10
2018-09-30T01:29:09.813Z,3.27
2018-09-30T01:31:39.129Z,3.40
2018-09-30T01:34:08.186Z,3.70
2018-09-30T01:36:37.163Z,3.77
2018-09-30T01:39:07.229Z,4.03
2018-09-30T01:41:36.031Z,3.70
2018-09-30T01:44:05.018Z,3.80
2018-09-30T01:46:34.118Z,4.00
2018-09-30T01:49:03.429Z,3.77
2018-09-30T01:51:33.072Z,3.67
2018-09-30T01:54:02.446Z,3.63
2018-09-30T01:56:32.149Z,3.80
2018-09-30T01:59:01.551Z,3.87
2018-09-30T02:01:30.563Z,3.50
2018-09-30T02:04:00.236Z,3.20
2018-09-30T02:06:29.352Z,3.17
2018-09-30T02:08:58.773Z,2.93
2018-09-30T02:11:27.751Z,3.63
2018-09-30T02:13:56.910Z,3.63
2018-09-30T02:16:26.043Z,3.43
2018-09-30T02:18:57.345Z,3.10
2018-09-30T02:21:26.796Z,4.20
2018-09-30T02:23:56.033Z,3.97
2018-09-30T02:26:25.783Z,3.97
2018-09-30T02:28:54.934Z,3.70
2018-09-30T02:31:24.253Z,3.80
2018-09-30T02:33:53.344Z,4.10
2018-09-30T02:36:22.673Z,3.63
2018-09-30T02:38:52.195Z,3.50
2018-09-30T02:41:21.546Z,3.50
2018-09-30T02:43:50.557Z,3.13
2018-09-30T02:46:19.516Z,3.47
2018-09-30T02:48:48.828Z,3.50
2018-09-30T02:51:18.124Z,3.07
2018-09-30T02:53:47.450Z,3.07
2018-09-30T02:56:16.771Z,3.20
2018-09-30T02:58:46.439Z,3.27
2018-09-30T03:01:16.060Z,2.93
2018-09-30T03:03:45.359Z,3.10
2018-09-30T03:06:20.079Z,3.50
2018-09-30T03:08:54.305Z,3.27
2018-09-30T03:11:23.298Z,3.40
2018-09-30T03:13:52.749Z,3.73
2018-09-30T03:16:21.699Z,3.40
2018-09-30T03:18:50.660Z,3.30
2018-09-30T03:21:20.906Z,3.77
2018-09-30T03:23:57.055Z,4.30
2018-09-30T03:26:26.390Z,3.90
2018-09-30T03:28:55.889Z,4.17
2018-09-30T03:31:25.069Z,4.33
2018-09-30T03:33:54.434Z,4.50
2018-09-30T03:36:23.546Z,4.87
2018-09-30T03:38:52.573Z,5.47
2018-09-30T03:41:21.897Z,4.87
2018-09-30T03:43:50.971Z,5.10
2018-09-30T03:46:20.273Z,5.33
2018-09-30T03:48:49.665Z,5.30
2018-09-30T03:51:18.637Z,5.27
2018-09-30T03:53:48.330Z,5.23
2018-09-30T03:56:17.964Z,4.97
2018-09-30T03:58:47.321Z,4.80
2018-09-30T04:01:16.685Z,5.00
2018-09-30T04:03:46.775Z,5.00
2018-09-30T04:06:16.384Z,4.47
2018-09-30T04:08:45.351Z,4.40
2018-09-30T04:11:14.885Z,4.20
2018-09-30T04:13:45.157Z,4.13
2018-09-30T04:16:14.426Z,4.63
2018-09-30T04:18:43.575Z,4.03
2018-09-30T04:21:12.631Z,4.40
2018-09-30T04:23:42.175Z,4.40
2018-09-30T04:26:11.291Z,3.63
2018-09-30T04:28:41.094Z,4.50
2018-09-30T04:31:10.131Z,4.27
2018-09-30T04:33:39.437Z,3.43
2018-09-30T04:36:08.752Z,3.67
2018-09-30T04:38:38.078Z,4.03
2018-09-30T04:41:07.411Z,3.53
2018-09-30T04:43:36.237Z,3.90
2018-09-30T04:46:05.664Z,3.60
2018-09-30T04:48:34.635Z,3.70
2018-09-30T04:51:03.976Z,3.50
2018-09-30T04:53:33.399Z,3.50
2018-09-30T04:56:02.700Z,3.43
2018-09-30T04:58:31.734Z,3.43
2018-09-30T05:01:00.888Z,3.70
2018-09-30T05:03:30.101Z,3.97
2018-09-30T05:05:59.435Z,3.73
2018-09-30T05:08:28.482Z,3.47
2018-09-30T05:10:57.719Z,3.53
2018-09-30T05:13:28.194Z,3.57
2018-09-30T05:15:57.870Z,3.50
2018-09-30T05:18:27.299Z,3.80
2018-09-30T05:20:56.329Z,3.67
2018-09-30T05:23:25.487Z,3.37
2018-09-30T05:25:54.715Z,3.53
2018-09-30T05:28:24.055Z,3.57
2018-09-30T05:30:54.493Z,3.57
2018-09-30T05:33:24.042Z,3.53
2018-09-30T05:35:53.997Z,3.33
2018-09-30T05:38:23.589Z,3.77
2018-09-30T05:40:52.967Z,3.70
2018-09-30T05:43:23.141Z,3.67
2018-09-30T05:45:52.820Z,4.57
2018-09-30T05:48:21.812Z,4.13
2018-09-30T05:50:51.146Z,3.60
2018-09-30T05:53:20.471Z,3.43
2018-09-30T05:55:49.859Z,3.63
2018-09-30T05:58:19.197Z,3.80
2018-09-30T06:00:48.205Z,3.80
2018-09-30T06:03:17.511Z,3.73
2018-09-30T06:05:46.544Z,3.40
2018-09-30T06:08:15.829Z,3.60
2018-09-30T06:10:45.131Z,3.73
2018-09-30T06:13:13.919Z,4.00
2018-09-30T06:15:42.897Z,3.70
2018-09-30T06:18:12.173Z,3.87
2018-09-30T06:20:42.111Z,3.60
2018-09-30T06:23:11.658Z,3.17
2018-09-30T06:25:40.710Z,3.47
2018-09-30T06:28:09.952Z,3.70
2018-09-30T06:30:39.868Z,3.27
2018-09-30T06:33:09.063Z,3.50
2018-09-30T06:35:38.691Z,6.53
2018-09-30T06:38:07.879Z,3.77
2018-09-30T06:40:37.092Z,3.60
2018-09-30T06:43:06.843Z,3.67
2018-09-30T06:45:36.512Z,3.93
2018-09-30T06:48:06.038Z,3.47
2018-09-30T06:50:35.364Z,3.33
2018-09-30T06:53:04.963Z,3.50
2018-09-30T06:55:34.352Z,3.80
2018-09-30T06:58:03.748Z,3.50
2018-09-30T07:00:32.740Z,3.53
2018-09-30T07:03:01.716Z,3.63
2018-09-30T07:05:31.046Z,3.93
2018-09-30T07:08:00.054Z,3.50
2018-09-30T07:10:29.470Z,3.40
2018-09-30T07:12:58.298Z,3.40
2018-09-30T07:15:27.704Z,4.17
2018-09-30T07:17:56.712Z,4.63
2018-09-30T07:20:25.706Z,3.57
2018-09-30T07:22:55.696Z,3.52
2018-09-30T07:25:25.576Z,3.58
2018-09-30T07:27:55.498Z,3.85
2018-09-30T07:30:25.064Z,3.37
2018-09-30T07:32:54.650Z,3.30
2018-09-30T07:35:24.228Z,3.50
2018-09-30T07:37:54.170Z,3.77
2018-09-30T07:40:23.739Z,3.87
2018-09-30T07:42:53.321Z,4.80
2018-09-30T07:45:23.045Z,4.40
2018-09-30T07:47:52.788Z,3.17
2018-09-30T07:50:22.802Z,2.98
2018-09-30T07:52:52.766Z,2.95
2018-09-30T07:55:22.518Z,3.58
2018-09-30T07:57:52.783Z,3.22
2018-09-30T08:00:22.389Z,3.33
2018-09-30T08:02:52.466Z,3.25
2018-09-30T08:05:22.267Z,2.98
2018-09-30T08:07:52.309Z,3.10
2018-09-30T08:10:22.218Z,3.52
2018-09-30T08:12:52.147Z,4.08
2018-09-30T08:15:21.981Z,2.67
2018-09-30T08:17:52.035Z,2.90
2018-09-30T08:20:21.953Z,3.30
2018-09-30T08:22:51.750Z,4.20
2018-09-30T08:25:21.683Z,2.95
2018-09-30T08:27:52.209Z,3.10
2018-09-30T08:30:22.165Z,3.00
2018-09-30T08:32:53.048Z,3.08
2018-09-30T08:35:22.909Z,2.98
2018-09-30T08:37:58.261Z,2.70
2018-09-30T08:40:33.800Z,3.17
2018-09-30T08:43:03.552Z,2.70
2018-09-30T08:45:33.348Z,3.37
2018-09-30T08:48:03.283Z,5.05
2018-09-30T08:50:33.063Z,2.92
2018-09-30T08:53:02.592Z,3.20
2018-09-30T08:55:32.377Z,2.77
2018-09-30T08:58:02.330Z,2.37
2018-09-30T09:00:31.938Z,3.40
2018-09-30T09:03:01.655Z,2.90
2018-09-30T09:05:32.915Z,2.98
2018-09-30T09:08:02.735Z,2.60
2018-09-30T09:10:32.217Z,2.60
2018-09-30T09:13:01.683Z,2.80
2018-09-30T09:15:30.895Z,2.27
2018-09-30T09:18:00.206Z,2.60
2018-09-30T09:20:29.620Z,2.40
2018-09-30T09:22:58.890Z,2.10
2018-09-30T09:25:28.134Z,2.60
2018-09-30T09:27:57.538Z,2.17
2018-09-30T09:30:27.106Z,2.40
2018-09-30T09:32:56.452Z,2.77
2018-09-30T09:35:25.949Z,2.10
2018-09-30T09:37:54.990Z,2.60
2018-09-30T09:40:24.877Z,2.00
2018-09-30T09:42:53.901Z,2.00
2018-09-30T09:45:22.933Z,1.90
2018-09-30T09:47:52.741Z,2.43
2018-09-30T09:50:22.041Z,2.30
2018-09-30T09:52:51.042Z,2.27
2018-09-30T09:55:20.072Z,2.20
2018-09-30T09:57:49.024Z,2.27
2018-09-30T10:00:23.510Z,2.00
2018-09-30T10:02:52.560Z,2.10
2018-09-30T10:05:21.579Z,2.43
2018-09-30T10:07:51.010Z,2.60
2018-09-30T10:10:20.020Z,2.37
2018-09-30T10:12:49.106Z,2.30
2018-09-30T10:15:18.005Z,2.43
2018-09-30T10:17:47.053Z,2.20
2018-09-30T10:20:16.843Z,2.10
2018-09-30T10:22:46.035Z,2.27
2018-09-30T10:25:15.636Z,2.07
2018-09-30T10:27:45.057Z,2.13
2018-09-30T10:30:14.799Z,3.87
2018-09-30T10:32:44.137Z,2.20
2018-09-30T10:35:15.651Z,1.83
2018-09-30T10:37:45.057Z,1.73
2018-09-30T10:40:15.758Z,2.10
2018-09-30T10:42:45.262Z,1.90
2018-09-30T10:45:15.604Z,1.70
2018-09-30T10:47:45.952Z,1.97
2018-09-30T10:50:15.575Z,1.90
2018-09-30T10:52:44.929Z,1.80
2018-09-30T10:55:14.277Z,1.63
2018-09-30T10:57:43.816Z,1.80
2018-09-30T11:00:13.010Z,1.63
2018-09-30T11:02:42.167Z,1.77
2018-09-30T11:07:40.803Z,1.60
2018-09-30T11:10:11.064Z,1.67
2018-09-30T11:12:40.323Z,1.80
2018-09-30T11:15:10.772Z,1.77
2018-09-30T11:17:40.089Z,1.90
2018-09-30T11:20:09.398Z,1.90
2018-09-30T11:22:39.087Z,1.80
2018-09-30T11:25:11.438Z,1.70
2018-09-30T11:27:40.600Z,1.50
2018-09-30T11:30:10.041Z,1.70
2018-09-30T11:32:45.453Z,1.73
2018-09-30T11:35:15.674Z,1.60
2018-09-30T11:37:45.101Z,1.60
2018-09-30T11:40:14.539Z,1.50
2018-09-30T11:42:43.829Z,1.57
2018-09-30T11:45:13.528Z,1.40
2018-09-30T11:47:43.631Z,2.67
2018-09-30T11:50:13.408Z,1.80
2018-09-30T11:52:42.566Z,1.70
2018-09-30T11:55:12.059Z,1.40
2018-09-30T11:57:41.746Z,1.30
2018-09-30T12:00:12.087Z,3.37
2018-09-30T12:02:41.559Z,1.77
2018-09-30T12:05:10.645Z,1.43
2018-09-30T12:07:42.961Z,1.50
2018-09-30T12:10:12.119Z,1.30
2018-09-30T12:12:42.003Z,1.87
2018-09-30T12:15:12.224Z,1.13
2018-09-30T12:17:41.323Z,1.47
2018-09-30T12:20:10.554Z,1.30
2018-09-30T12:22:41.257Z,1.53
2018-09-30T12:25:12.420Z,1.43
2018-09-30T12:27:41.752Z,1.43
2018-09-30T12:30:10.877Z,1.60
2018-09-30T12:32:40.979Z,3.80
2018-09-30T12:35:12.848Z,2.93
2018-09-30T12:37:42.958Z,1.80
2018-09-30T12:40:12.983Z,1.50
2018-09-30T12:42:43.579Z,1.70
2018-09-30T12:45:13.170Z,2.50
2018-09-30T12:47:43.242Z,1.63
2018-09-30T12:50:12.422Z,1.20
2018-09-30T12:52:41.812Z,1.53
2018-09-30T12:55:12.560Z,1.60
2018-09-30T12:57:43.228Z,1.50
2018-09-30T13:00:13.017Z,1.33
2018-09-30T13:02:42.264Z,1.47
2018-09-30T13:05:13.884Z,1.40
2018-09-30T13:07:44.069Z,1.70
2018-09-30T13:10:13.450Z,1.17
2018-09-30T13:12:42.755Z,1.40
2018-09-30T13:15:13.709Z,1.27
2018-09-30T13:17:43.766Z,1.23
2018-09-30T13:20:13.317Z,1.30
2018-09-30T13:22:44.604Z,1.30
2018-09-30T13:25:14.688Z,1.20
2018-09-30T13:27:44.928Z,1.70
2018-09-30T13:30:14.434Z,1.97
2018-09-30T13:32:43.746Z,1.50
2018-09-30T13:35:13.318Z,1.40
2018-09-30T13:37:45.694Z,1.30
2018-09-30T13:40:15.738Z,1.37
2018-09-30T13:42:45.737Z,1.43
2018-09-30T13:45:15.106Z,1.40
2018-09-30T13:47:44.738Z,1.40
2018-09-30T13:50:14.851Z,1.30
2018-09-30T13:52:45.314Z,1.23
2018-09-30T13:55:15.249Z,1.13
2018-09-30T13:57:46.358Z,1.80
2018-09-30T14:00:15.957Z,1.23
2018-09-30T14:02:45.568Z,1.10
2018-09-30T14:05:15.083Z,1.40
2018-09-30T14:07:44.469Z,1.47
2018-09-30T14:10:14.292Z,1.20
2018-09-30T14:12:43.796Z,1.27
2018-09-30T14:15:13.721Z,1.50
2018-09-30T14:17:43.252Z,1.20
2018-09-30T14:20:13.322Z,1.50
2018-09-30T14:22:42.929Z,1.23
2018-09-30T14:25:13.112Z,1.20
2018-09-30T14:27:42.533Z,1.40
2018-09-30T14:30:12.232Z,1.33
2018-09-30T14:32:42.182Z,1.80
2018-09-30T14:35:11.953Z,2.40
2018-09-30T14:37:42.131Z,1.20
2018-09-30T14:40:11.563Z,1.30
2018-09-30T14:42:40.747Z,1.23
2018-09-30T14:45:10.538Z,1.30
2018-09-30T14:47:39.913Z,1.30
2018-09-30T14:50:10.265Z,1.27
2018-09-30T14:52:40.311Z,1.40
2018-09-30T14:55:09.890Z,1.30
2018-09-30T14:57:39.564Z,1.27
2018-09-30T15:00:10.948Z,1.17
2018-09-30T15:02:41.401Z,1.10
2018-09-30T15:05:11.880Z,1.27
2018-09-30T15:07:41.738Z,1.30
2018-09-30T15:10:11.535Z,1.67
2018-09-30T15:12:40.574Z,1.07
2018-09-30T15:15:10.032Z,1.27
2018-09-30T15:17:39.397Z,1.20
2018-09-30T15:20:08.730Z,1.20
2018-09-30T15:22:39.172Z,1.20
2018-09-30T15:25:09.292Z,1.10
2018-09-30T15:27:40.271Z,1.47
2018-09-30T15:30:11.128Z,1.60
2018-09-30T15:32:41.504Z,1.13
2018-09-30T15:35:10.848Z,1.37
2018-09-30T15:37:40.373Z,1.53
2018-09-30T15:40:10.219Z,1.30
2018-09-30T15:42:39.721Z,1.30
2018-09-30T15:45:09.816Z,1.30
2018-09-30T15:47:40.394Z,1.23
2018-09-30T15:50:09.610Z,1.30
2018-09-30T15:52:39.504Z,1.40
2018-09-30T15:55:09.867Z,1.47
2018-09-30T15:57:39.888Z,1.30
2018-09-30T16:00:10.647Z,1.50
2018-09-30T16:02:42.042Z,2.10
2018-09-30T16:05:11.643Z,1.50
2018-09-30T16:07:42.914Z,1.57
2018-09-30T16:10:13.326Z,1.50
2018-09-30T16:12:43.293Z,2.03
2018-09-30T16:15:12.590Z,1.90
2018-09-30T16:17:43.057Z,2.00
2018-09-30T16:20:13.284Z,1.90
2018-09-30T16:22:44.020Z,1.70
2018-09-30T16:25:14.238Z,1.60
2018-09-30T16:27:44.452Z,2.10
2018-09-30T16:30:14.730Z,2.00
2018-09-30T16:32:44.399Z,1.50
2018-09-30T16:35:13.989Z,2.00
2018-09-30T16:37:45.297Z,1.63
2018-09-30T16:40:16.013Z,2.07
2018-09-30T16:42:52.380Z,2.40
2018-09-30T16:45:21.677Z,2.37
2018-09-30T16:47:51.569Z,2.70
2018-09-30T16:50:21.329Z,2.77
2018-09-30T16:52:51.288Z,3.57
2018-09-30T16:55:20.968Z,2.90
2018-09-30T16:57:50.591Z,2.80
2018-09-30T17:00:20.379Z,2.77
2018-09-30T17:02:50.167Z,2.50
2018-09-30T17:05:20.670Z,3.20
2018-09-30T17:07:50.829Z,3.07
2018-09-30T17:10:21.278Z,3.87
2018-09-30T17:12:51.630Z,4.17
2018-09-30T17:15:21.843Z,4.20
2018-09-30T17:17:52.039Z,4.47
2018-09-30T17:20:21.807Z,4.30
2018-09-30T17:22:57.735Z,3.80
2018-09-30T17:25:28.280Z,3.80
2018-09-30T17:27:57.774Z,4.27
2018-09-30T17:30:27.493Z,4.50
2018-09-30T17:32:57.379Z,4.57
2018-09-30T17:35:27.653Z,4.60
2018-09-30T17:37:57.672Z,5.27
2018-09-30T17:40:28.053Z,6.30
2018-09-30T17:42:58.355Z,6.07
2018-09-30T17:45:28.388Z,5.77
2018-09-30T17:47:58.063Z,6.00
2018-09-30T17:50:28.401Z,5.70
2018-09-30T17:52:58.889Z,6.03
2018-09-30T17:55:29.083Z,6.57
2018-09-30T17:57:59.450Z,4.70
2018-09-30T18:00:29.283Z,5.70
2018-09-30T18:02:59.682Z,5.93
2018-09-30T18:05:29.509Z,4.80
2018-09-30T18:07:59.252Z,4.83
2018-09-30T18:10:29.537Z,4.90
2018-09-30T18:12:59.615Z,5.17
2018-09-30T18:15:29.711Z,5.37
2018-09-30T18:18:00.692Z,5.50
2018-09-30T18:20:30.877Z,6.23
2018-09-30T18:23:01.102Z,6.10
2018-09-30T18:25:31.820Z,5.83
2018-09-30T18:28:02.386Z,5.33
2018-09-30T18:30:32.868Z,5.33
2018-09-30T18:33:03.198Z,4.63
2018-09-30T18:35:34.060Z,5.10
2018-09-30T18:38:04.446Z,4.57
2018-09-30T18:40:44.024Z,5.47
2018-09-30T18:43:15.568Z,5.43
2018-09-30T18:45:46.206Z,6.53
2018-09-30T18:48:16.732Z,6.23
2018-09-30T18:50:46.910Z,7.30
2018-09-30T18:53:17.249Z,6.83
2018-09-30T18:55:47.110Z,4.93
2018-09-30T18:58:18.261Z,5.53
2018-09-30T19:00:49.178Z,5.33
2018-09-30T19:03:20.000Z,4.67
2018-09-30T19:05:50.264Z,4.80
2018-09-30T19:08:21.507Z,5.00
2018-09-30T19:10:52.076Z,5.33
2018-09-30T19:13:22.642Z,5.07
2018-09-30T19:15:53.678Z,5.97
2018-09-30T19:18:24.715Z,5.50
2018-09-30T19:20:55.637Z,5.40
2018-09-30T19:23:25.935Z,6.93
2018-09-30T19:25:56.568Z,6.37
2018-09-30T19:28:27.122Z,5.40
2018-09-30T19:30:57.336Z,6.70
2018-09-30T19:33:28.825Z,5.97
2018-09-30T19:35:59.438Z,6.07
2018-09-30T19:38:29.577Z,6.17
2018-09-30T19:43:28.208Z,6.43
2018-09-30T19:45:58.552Z,6.17
2018-09-30T19:48:29.216Z,5.80
2018-09-30T19:51:00.265Z,6.70
2018-09-30T19:53:31.821Z,6.67
2018-09-30T19:56:02.461Z,8.00
2018-09-30T19:58:33.453Z,7.67
2018-09-30T20:01:04.352Z,6.60
2018-09-30T20:03:34.670Z,6.80
2018-09-30T20:06:05.617Z,6.67
2018-09-30T20:08:36.649Z,6.33
2018-09-30T20:11:07.749Z,6.60
2018-09-30T20:13:38.464Z,6.17
2018-09-30T20:16:10.775Z,7.17
2018-09-30T20:18:42.848Z,5.73
2018-09-30T20:21:14.689Z,6.40
2018-09-30T20:23:44.967Z,5.70
2018-09-30T20:26:16.482Z,6.40
2018-09-30T20:28:47.840Z,6.57
2018-09-30T20:31:19.279Z,8.07
2018-09-30T20:33:50.472Z,8.43
2018-09-30T20:36:20.581Z,7.70
2018-09-30T20:38:50.596Z,7.07
2018-09-30T20:41:25.695Z,6.70
2018-09-30T20:43:57.638Z,6.10
2018-09-30T20:46:28.635Z,6.47
2018-09-30T20:48:58.632Z,7.20
2018-09-30T20:51:31.423Z,6.60
2018-09-30T20:54:02.526Z,6.10
2018-09-30T20:56:32.959Z,6.10
2018-09-30T20:59:06.812Z,6.87
2018-09-30T21:01:37.028Z,6.70
2018-09-30T21:04:08.846Z,6.20
2018-09-30T21:06:40.497Z,7.03
2018-09-30T21:09:13.560Z,7.20
2018-09-30T21:11:44.566Z,6.23
2018-09-30T21:14:14.053Z,7.00
2018-09-30T21:16:43.983Z,7.37
2018-09-30T21:19:14.284Z,6.77
2018-09-30T21:21:44.514Z,6.67
2018-09-30T21:24:15.448Z,6.47
2018-09-30T21:26:46.195Z,6.37
2018-09-30T21:29:15.540Z,6.67
2018-09-30T21:31:45.678Z,7.33
2018-09-30T21:34:14.962Z,8.33
2018-09-30T21:36:44.175Z,7.13
2018-09-30T21:39:13.371Z,7.27
2018-09-30T21:41:42.655Z,6.77
2018-09-30T21:44:12.104Z,8.33
2018-09-30T21:46:41.513Z,8.50
2018-09-30T21:49:12.393Z,6.97
2018-09-30T21:51:42.889Z,6.77
2018-09-30T21:54:12.517Z,6.43
2018-09-30T21:56:42.105Z,6.90
2018-09-30T21:59:11.687Z,6.13
2018-09-30T22:01:42.744Z,6.77
2018-09-30T22:04:12.378Z,6.50
2018-09-30T22:06:42.578Z,6.73
2018-09-30T22:09:12.144Z,6.60
2018-09-30T22:11:41.586Z,6.50
2018-09-30T22:14:12.949Z,7.47
2018-09-30T22:16:43.722Z,7.00
2018-09-30T22:19:14.661Z,8.20
2018-09-30T22:21:45.006Z,7.37
2018-09-30T22:24:14.699Z,6.73
2018-09-30T22:26:45.526Z,7.03
2018-09-30T22:29:16.754Z,8.13
2018-09-30T22:31:46.309Z,6.87
2018-09-30T22:34:16.574Z,7.80
2018-09-30T22:36:46.326Z,7.10
2018-09-30T22:39:16.158Z,7.83
2018-09-30T22:41:45.837Z,7.60
2018-09-30T22:44:15.553Z,7.50
2018-09-30T22:46:45.771Z,7.77
2018-09-30T22:49:15.696Z,7.50
2018-09-30T22:51:45.571Z,8.53
2018-09-30T22:54:18.341Z,8.13
2018-09-30T22:56:48.473Z,8.23
2018-09-30T22:59:18.187Z,7.63
2018-09-30T23:01:48.219Z,8.33
2018-09-30T23:04:18.003Z,7.53
2018-09-30T23:06:47.979Z,8.57
2018-09-30T23:09:17.226Z,7.93
2018-09-30T23:11:47.390Z,8.07
2018-09-30T23:14:17.895Z,8.20
2018-09-30T23:16:48.124Z,8.17
2018-09-30T23:19:17.406Z,7.47
2018-09-30T23:21:47.223Z,8.03
2018-09-30T23:24:19.692Z,7.27
2018-09-30T23:26:52.567Z,8.37
2018-09-30T23:29:25.373Z,7.73
2018-09-30T23:31:58.702Z,7.47
2018-09-30T23:34:31.067Z,7.70
2018-09-30T23:37:00.901Z,7.87
2018-09-30T23:39:33.602Z,8.17
2018-09-30T23:42:03.659Z,7.83
2018-09-30T23:44:33.276Z,7.70
2018-09-30T23:47:02.329Z,8.03
2018-09-30T23:49:36.515Z,7.77
2018-09-30T23:52:12.709Z,7.60
2018-09-30T23:54:42.561Z,7.80
2018-09-30T23:57:11.651Z,8.53
2018-09-30T23:59:41.720Z,8.50
